Time;durP1;ratioP1;P1;durP2;ratioP2;P2;SDS_P1;SDS_P2;PMS_P1;PMS_P2;Temp;Humidity;BMP_temperature;BMP_pressure;BME280_temperature;BME280_humidity;BME280_pressure;Samples;Min_cycle;Max_cycle;Signal;HPM_P1;HPM_P2
2023/12/16 00:02:11;;;;;;;2.85;1.98;;;;;;;7.22;100.00;102800.19;5016700;28;20048;-79
2023/12/16 00:04:41;;;;;;;2.75;1.73;;;;;;;7.21;100.00;102791.31;5016701;28;20036;-79
2023/12/16 00:07:07;;;;;;;2.60;1.77;;;;;;;7.13;100.00;102788.28;5016273;28;20436;-79
2023/12/16 00:09:33;;;;;;;3.17;1.98;;;;;;;7.19;100.00;102793.22;5000454;28;20041;-79
2023/12/16 00:11:59;;;;;;;2.80;2.03;;;;;;;7.19;100.00;102787.03;5000320;28;20033;-78
2023/12/16 00:14:26;;;;;;;3.58;2.03;;;;;;;7.26;100.00;102775.81;4984422;28;20045;-79
2023/12/16 00:16:57;;;;;;;3.03;2.13;;;;;;;7.29;100.00;102768.53;5016288;28;20038;-79
2023/12/16 00:19:23;;;;;;;2.95;1.83;;;;;;;7.37;100.00;102783.09;5000593;28;20048;-78
2023/12/16 00:21:51;;;;;;;3.15;2.17;;;;;;;7.42;100.00;102786.31;4999995;28;20128;-79
2023/12/16 00:24:22;;;;;;;4.72;1.80;;;;;;;7.30;100.00;102783.63;5032285;28;20041;-79
2023/12/16 00:26:50;;;;;;;4.68;2.00;;;;;;;7.21;100.00;102785.97;4999530;28;20484;-79
2023/12/16 00:29:17;;;;;;;3.40;1.98;;;;;;;7.23;100.00;102776.00;5000322;28;20114;-79
2023/12/16 00:31:43;;;;;;;3.03;1.63;;;;;;;7.22;100.00;102777.00;5000452;28;20037;-79
2023/12/16 00:34:10;;;;;;;2.70;1.90;;;;;;;7.18;100.00;102775.47;5032591;28;20029;-79
2023/12/16 00:36:36;;;;;;;2.85;1.90;;;;;;;7.21;100.00;102771.72;5016677;28;20029;-78
2023/12/16 00:39:02;;;;;;;2.90;2.13;;;;;;;7.12;100.00;102764.31;5015799;28;20063;-78
2023/12/16 00:41:32;;;;;;;2.95;1.92;;;;;;;7.17;100.00;102764.84;5032291;28;20021;-79
2023/12/16 00:43:58;;;;;;;2.53;1.70;;;;;;;7.36;100.00;102764.47;5000630;28;20106;-79
2023/12/16 00:46:23;;;;;;;2.50;1.75;;;;;;;7.29;100.00;102765.84;5016491;28;20369;-78
2023/12/16 00:48:49;;;;;;;2.50;1.80;;;;;;;7.28;100.00;102765.00;4999809;28;20468;-79
2023/12/16 00:51:15;;;;;;;2.35;1.60;;;;;;;7.36;100.00;102765.34;4983507;28;20037;-79
2023/12/16 00:53:43;;;;;;;3.22;1.60;;;;;;;7.20;100.00;102756.66;4999509;28;20391;-78
2023/12/16 00:56:40;;;;;;;3.03;2.05;;;;;;;7.14;100.00;102768.59;5016061;28;20472;-78
2023/12/16 00:59:06;;;;;;;2.28;1.70;;;;;;;7.11;100.00;102751.91;5000560;28;20063;-79
2023/12/16 01:01:35;;;;;;;2.20;1.67;;;;;;;7.04;100.00;102759.50;4999708;28;20053;-78
2023/12/16 01:04:03;;;;;;;2.03;1.50;;;;;;;7.05;100.00;102746.00;5016068;28;20026;-79
2023/12/16 01:06:32;;;;;;;2.40;1.67;;;;;;;7.11;100.00;102743.88;4999772;28;20119;-79
2023/12/16 01:08:58;;;;;;;2.05;1.40;;;;;;;7.19;100.00;102746.88;5016159;28;20048;-79
2023/12/16 01:11:26;;;;;;;2.35;1.63;;;;;;;7.07;100.00;102742.41;4999221;28;20041;-79
2023/12/16 01:13:56;;;;;;;2.78;1.70;;;;;;;6.95;100.00;102736.91;5016605;28;20033;-79
2023/12/16 01:16:22;;;;;;;2.08;1.40;;;;;;;7.05;100.00;102740.66;4999171;28;20041;-78
2023/12/16 01:18:51;;;;;;;2.28;1.40;;;;;;;7.08;100.00;102744.94;4999506;28;20150;-78
2023/12/16 01:21:19;;;;;;;2.25;1.33;;;;;;;7.02;100.00;102742.69;5031569;28;20076;-78
2023/12/16 01:23:45;;;;;;;2.70;1.60;;;;;;;7.07;100.00;102737.91;5015249;28;20045;-79
2023/12/16 01:26:11;;;;;;;2.00;1.30;;;;;;;7.11;100.00;102736.72;4999529;28;20057;-79
2023/12/16 01:28:39;;;;;;;2.72;1.67;;;;;;;7.04;100.00;102733.63;4998808;28;20049;-79
2023/12/16 01:31:05;;;;;;;2.13;1.48;;;;;;;6.92;100.00;102739.78;4999443;28;20033;-78
2023/12/16 01:33:30;;;;;;;2.70;1.73;;;;;;;6.86;100.00;102736.69;4999126;28;20439;-79
2023/12/16 01:35:57;;;;;;;2.67;1.42;;;;;;;6.89;100.00;102737.31;5015591;28;20034;-79
2023/12/16 01:38:23;;;;;;;1.90;1.52;;;;;;;6.89;100.00;102740.00;5015413;28;20038;-79
2023/12/16 01:40:50;;;;;;;2.75;1.35;;;;;;;6.99;100.00;102732.22;4999634;28;20025;-79
2023/12/16 01:43:17;;;;;;;2.47;1.60;;;;;;;6.99;100.00;102732.22;5015632;28;20029;-79
2023/12/16 01:45:43;;;;;;;2.30;1.40;;;;;;;7.09;100.00;102733.28;4999830;28;20606;-79
2023/12/16 01:48:11;;;;;;;2.70;1.50;;;;;;;7.09;100.00;102730.59;5015619;28;20071;-79
2023/12/16 01:50:37;;;;;;;2.60;1.52;;;;;;;7.00;100.00;102726.75;5030881;28;20459;-79
2023/12/16 01:53:04;;;;;;;1.63;1.25;;;;;;;7.01;100.00;102723.13;5015580;28;20069;-79
2023/12/16 01:55:32;;;;;;;1.70;1.20;;;;;;;7.14;100.00;102722.28;4999203;28;20098;-80
2023/12/16 01:57:58;;;;;;;2.17;1.50;;;;;;;7.16;100.00;102723.03;5015633;28;20473;-79
2023/12/16 02:00:26;;;;;;;2.80;1.40;;;;;;;7.23;100.00;102722.50;5031799;28;20033;-79
2023/12/16 02:02:52;;;;;;;2.50;1.40;;;;;;;7.29;100.00;102715.88;5030992;28;20040;-79
2023/12/16 02:05:19;;;;;;;2.38;1.60;;;;;;;7.25;100.00;102709.00;4982958;28;20038;-80
2023/12/16 02:07:44;;;;;;;1.70;1.20;;;;;;;7.22;100.00;102719.91;4982927;28;20396;-80
2023/12/16 02:10:11;;;;;;;2.03;1.20;;;;;;;7.21;100.00;102712.88;4999615;28;20037;-79
2023/12/16 02:12:37;;;;;;;3.13;1.20;;;;;;;7.25;100.00;102717.91;5015482;28;20096;-79
2023/12/16 02:15:03;;;;;;;2.05;1.02;;;;;;;7.31;100.00;102710.41;4998605;28;20029;-79
2023/12/16 02:17:31;;;;;;;1.98;1.00;;;;;;;7.35;100.00;102714.56;5014612;28;20179;-79
2023/12/16 02:19:57;;;;;;;2.40;1.10;;;;;;;7.35;100.00;102715.44;4998529;28;20133;-79
2023/12/16 02:22:23;;;;;;;1.45;1.00;;;;;;;7.38;100.00;102715.25;4998794;28;20382;-79
2023/12/16 02:24:49;;;;;;;1.23;0.80;;;;;;;7.36;100.00;102714.47;4998727;28;20095;-79
2023/12/16 02:27:15;;;;;;;1.25;0.90;;;;;;;7.40;100.00;102717.78;5015569;28;20042;-79
2023/12/16 02:29:41;;;;;;;1.40;0.90;;;;;;;7.40;100.00;102720.47;4999226;28;20144;-79
2023/12/16 02:32:07;;;;;;;1.83;0.88;;;;;;;7.35;100.00;102718.09;5001460;28;20041;-79
2023/12/16 02:34:33;;;;;;;1.05;0.82;;;;;;;7.39;100.00;102710.75;5036527;28;20491;-79
2023/12/16 02:37:02;;;;;;;1.05;0.80;;;;;;;7.35;100.00;102714.56;5018355;28;20396;-79
2023/12/16 02:39:30;;;;;;;1.50;0.90;;;;;;;7.46;100.00;102715.56;4986914;28;20033;-79
2023/12/16 02:41:56;;;;;;;1.15;0.80;;;;;;;7.49;100.00;102712.66;5001703;28;20048;-79
2023/12/16 02:44:22;;;;;;;2.67;0.80;;;;;;;7.51;100.00;102719.72;5002382;28;20029;-79
2023/12/16 02:46:50;;;;;;;1.10;0.90;;;;;;;7.54;100.00;102719.50;5002676;28;20048;-79
2023/12/16 02:49:16;;;;;;;0.70;0.70;;;;;;;7.46;100.00;102728.06;5034341;28;20029;-79
2023/12/16 02:51:46;;;;;;;1.00;0.70;;;;;;;7.43;100.00;102723.78;5002135;28;20056;-79
2023/12/16 02:54:12;;;;;;;2.45;0.90;;;;;;;7.52;100.00;102721.44;4998546;28;20029;-79
2023/12/16 02:56:38;;;;;;;1.00;0.80;;;;;;;7.46;100.00;102723.59;5001730;28;20033;-79
2023/12/16 02:59:05;;;;;;;1.63;1.10;;;;;;;7.44;100.00;102730.88;5001976;28;20107;-79
2023/12/16 03:01:31;;;;;;;1.20;0.90;;;;;;;7.37;100.00;102726.03;5017765;28;20411;-79
2023/12/16 03:03:59;;;;;;;0.98;0.80;;;;;;;7.32;100.00;102729.03;5034675;28;20037;-79
2023/12/16 03:06:25;;;;;;;1.45;0.95;;;;;;;7.44;100.00;102735.38;5018476;28;20104;-78
2023/12/16 03:08:54;;;;;;;1.92;1.00;;;;;;;7.40;100.00;102729.34;5001877;28;20190;-79
2023/12/16 03:11:20;;;;;;;1.17;0.90;;;;;;;7.44;100.00;102720.16;5017637;28;20056;-79
2023/12/16 03:13:45;;;;;;;1.40;0.70;;;;;;;7.37;100.00;102718.88;5017784;28;20030;-79
2023/12/16 03:16:13;;;;;;;1.35;0.95;;;;;;;7.28;100.00;102722.19;5034395;28;20450;-79
2023/12/16 03:18:39;;;;;;;1.27;0.90;;;;;;;7.35;100.00;102731.47;5017554;28;20036;-79
2023/12/16 03:21:06;;;;;;;1.52;0.90;;;;;;;7.31;100.00;102724.66;4985099;28;20247;-79
2023/12/16 03:23:35;;;;;;;1.80;1.05;;;;;;;7.31;100.00;102734.50;5033821;28;20029;-79
2023/12/16 03:26:02;;;;;;;2.30;0.93;;;;;;;7.29;100.00;102737.28;5001335;28;20315;-79
2023/12/16 03:28:34;;;;;;;1.77;1.05;;;;;;;7.31;100.00;102738.03;5018001;28;20056;-79
2023/12/16 03:31:02;;;;;;;1.80;1.10;;;;;;;7.26;100.00;102738.34;5001677;28;20047;-79
2023/12/16 03:33:32;;;;;;;1.55;1.00;;;;;;;7.25;100.00;102731.28;5002072;28;20033;-79
2023/12/16 03:36:08;;;;;;;2.85;0.93;;;;;;;7.23;100.00;102729.69;5033993;28;20040;-79
2023/12/16 03:38:33;;;;;;;1.50;1.02;;;;;;;7.21;100.00;102712.88;5001250;28;20034;-79
2023/12/16 03:40:59;;;;;;;1.60;0.98;;;;;;;7.21;100.00;102723.56;5001482;28;20546;-78
2023/12/16 03:43:28;;;;;;;1.00;0.80;;;;;;;7.20;100.00;102721.88;5016588;28;20408;-79
2023/12/16 03:45:53;;;;;;;1.40;0.90;;;;;;;7.17;100.00;102722.06;5016903;28;20396;-78
2023/12/16 03:48:19;;;;;;;1.10;0.80;;;;;;;7.16;100.00;102715.84;5000984;28;20029;-78
2023/12/16 03:50:45;;;;;;;1.10;0.80;;;;;;;7.14;100.00;102723.13;5017070;28;20455;-79
2023/12/16 03:53:10;;;;;;;1.35;0.80;;;;;;;7.13;100.00;102721.41;5017377;28;20038;-79
2023/12/16 03:55:36;;;;;;;1.10;0.80;;;;;;;7.17;100.00;102725.59;5001072;28;20523;-78
2023/12/16 03:58:02;;;;;;;1.40;0.80;;;;;;;7.17;100.00;102730.06;5000796;28;20088;-78
2023/12/16 04:00:28;;;;;;;0.93;0.80;;;;;;;7.09;100.00;102719.03;5000479;28;20049;-79
2023/12/16 04:02:55;;;;;;;0.80;0.70;;;;;;;7.04;100.00;102722.91;5016948;28;20037;-79
2023/12/16 04:05:24;;;;;;;0.85;0.77;;;;;;;7.05;100.00;102723.75;5001094;28;20041;-79
2023/12/16 04:07:52;;;;;;;1.10;0.70;;;;;;;7.04;100.00;102722.06;4996465;28;20048;-79
2023/12/16 04:10:20;;;;;;;0.73;0.60;;;;;;;7.07;100.00;102719.16;5016946;28;20086;-79
2023/12/16 04:12:48;;;;;;;0.82;0.80;;;;;;;7.06;100.00;102720.13;5032851;28;20098;-79
2023/12/16 04:15:13;;;;;;;0.70;0.70;;;;;;;7.07;100.00;102716.50;5000158;28;20456;-79
2023/12/16 04:17:39;;;;;;;1.40;0.60;;;;;;;7.07;100.00;102726.34;5017222;28;20033;-79
2023/12/16 04:20:05;;;;;;;1.35;0.80;;;;;;;7.04;100.00;102728.25;5000066;28;20056;-79
2023/12/16 04:22:36;;;;;;;0.77;0.77;;;;;;;7.08;100.00;102728.03;5016588;28;20037;-79
2023/12/16 04:25:09;;;;;;;0.95;0.70;;;;;;;7.07;100.00;102726.34;5017054;28;20490;-79
2023/12/16 04:27:48;;;;;;;2.15;0.90;;;;;;;7.06;100.00;102733.50;5001269;28;20040;-79
2023/12/16 04:30:14;;;;;;;0.60;0.60;;;;;;;7.11;100.00;102734.03;4999980;28;20049;-79
2023/12/16 04:32:39;;;;;;;0.77;0.70;;;;;;;7.08;100.00;102723.53;5000354;28;20611;-79
2023/12/16 04:35:05;;;;;;;1.42;0.73;;;;;;;6.96;100.00;102724.38;5000173;28;20472;-79
2023/12/16 04:37:34;;;;;;;1.05;0.80;;;;;;;6.94;100.00;102727.16;5000149;28;20419;-79
2023/12/16 04:40:05;;;;;;;1.00;0.70;;;;;;;6.98;100.00;102730.47;4999797;28;20468;-79
2023/12/16 04:42:33;;;;;;;0.95;0.70;;;;;;;6.99;100.00;102733.06;5017098;28;20388;-79
2023/12/16 04:45:05;;;;;;;0.88;0.68;;;;;;;7.04;100.00;102733.63;5016853;28;20033;-79
2023/12/16 04:47:31;;;;;;;0.70;0.70;;;;;;;7.05;100.00;102721.94;5016479;28;20041;-79
2023/12/16 04:49:57;;;;;;;0.60;0.60;;;;;;;7.05;100.00;102729.97;5016024;28;20397;-79
2023/12/16 04:52:23;;;;;;;1.75;0.77;;;;;;;7.10;100.00;102735.00;4999437;28;20063;-79
2023/12/16 04:54:49;;;;;;;0.85;0.75;;;;;;;7.01;100.00;102732.94;4999504;28;20129;-79
2023/12/16 04:57:14;;;;;;;1.35;0.80;;;;;;;7.02;100.00;102730.19;4999690;28;20044;-79
2023/12/16 04:59:40;;;;;;;1.00;0.80;;;;;;;7.01;100.00;102728.47;5015754;28;20037;-79
2023/12/16 05:02:06;;;;;;;1.10;0.80;;;;;;;6.98;100.00;102722.47;5015189;28;20435;-79
2023/12/16 05:04:32;;;;;;;1.50;0.65;;;;;;;7.00;100.00;102717.88;5015698;28;20373;-79
2023/12/16 05:10:17;;;;;;;0.75;0.70;;;;;;;7.05;100.00;102715.75;5011571;28;20065;-79
2023/12/16 05:12:49;;;;;;;1.02;0.80;;;;;;;7.05;100.00;102723.75;5000004;28;20029;-79
2023/12/16 05:20:21;;;;;;;;;;;;;;;;;;;;;
2023/12/16 05:24:36;;;;;;;;;;;;;;;;;;;;;
2023/12/16 05:27:00;;;;;;;0.98;0.80;;;;;;;6.93;100.00;102736.16;4974342;28;20100;-79
2023/12/16 05:29:25;;;;;;;0.98;0.70;;;;;;;7.00;100.00;102736.59;4949108;28;20041;-79
2023/12/16 05:31:51;;;;;;;1.52;0.93;;;;;;;7.05;100.00;102732.63;5016008;28;20083;-79
2023/12/16 05:34:17;;;;;;;0.60;0.60;;;;;;;7.00;100.00;102729.41;4998042;28;20392;-79
2023/12/16 05:36:44;;;;;;;0.60;0.60;;;;;;;6.96;100.00;102721.69;4999298;28;20029;-79
2023/12/16 05:39:10;;;;;;;0.95;0.73;;;;;;;6.85;100.00;102718.91;5015904;28;20511;-79
2023/12/16 05:41:36;;;;;;;0.70;0.70;;;;;;;6.85;100.00;102721.56;4999531;28;20159;-79
2023/12/16 05:44:05;;;;;;;0.60;0.60;;;;;;;6.91;100.00;102713.16;5015654;28;20038;-79
2023/12/16 05:46:33;;;;;;;0.70;0.70;;;;;;;6.80;100.00;102706.72;5010971;28;20040;-79
2023/12/16 05:48:59;;;;;;;0.70;0.60;;;;;;;6.60;100.00;102710.72;5032824;28;20025;-79
2023/12/16 05:51:27;;;;;;;1.25;0.63;;;;;;;6.52;100.00;102714.84;4998656;28;20437;-79
2023/12/16 05:53:52;;;;;;;0.60;0.60;;;;;;;6.39;100.00;102718.31;5016173;28;20029;-79
2023/12/16 05:56:21;;;;;;;0.52;0.52;;;;;;;6.46;100.00;102716.13;5015451;28;20026;-79
2023/12/16 05:58:49;;;;;;;0.50;0.50;;;;;;;6.58;100.00;102725.13;5015053;28;20086;-80
2023/12/16 06:01:19;;;;;;;0.50;0.50;;;;;;;6.63;100.00;102722.16;4999140;28;20127;-78
2023/12/16 06:03:46;;;;;;;0.52;0.52;;;;;;;6.68;100.00;102720.91;5015707;28;20400;-79
2023/12/16 06:06:14;;;;;;;0.55;0.55;;;;;;;6.66;100.00;102720.13;5000428;28;20049;-79
2023/12/16 06:08:40;;;;;;;0.60;0.60;;;;;;;6.75;100.00;102721.34;5019649;28;20396;-78
2023/12/16 06:11:15;;;;;;;0.65;0.65;;;;;;;6.72;100.00;102709.06;5020129;28;20119;-79
2023/12/16 06:13:41;;;;;;;0.65;0.60;;;;;;;6.61;100.00;102711.56;5002479;28;20036;-79
2023/12/16 06:16:13;;;;;;;0.77;0.70;;;;;;;6.70;100.00;102710.97;5002937;28;20033;-79
2023/12/16 06:18:47;;;;;;;0.50;0.50;;;;;;;6.85;100.00;102710.88;5004374;28;20030;-78
2023/12/16 06:21:13;;;;;;;0.93;0.60;;;;;;;6.86;100.00;102710.78;5002721;28;20034;-79
2023/12/16 06:23:42;;;;;;;0.60;0.60;;;;;;;6.86;100.00;102704.59;5034881;28;20056;-78
2023/12/16 06:26:07;;;;;;;0.65;0.65;;;;;;;6.85;100.00;102711.72;5003331;28;20044;-79
2023/12/16 06:28:35;;;;;;;0.75;0.70;;;;;;;6.84;100.00;102699.34;5018566;28;20034;-79
2023/12/16 06:31:01;;;;;;;0.60;0.60;;;;;;;6.75;100.00;102698.16;5034815;28;20373;-79
2023/12/16 06:33:29;;;;;;;1.00;0.57;;;;;;;6.83;100.00;102698.47;5018778;28;20075;-79
2023/12/16 06:35:55;;;;;;;0.50;0.50;;;;;;;6.81;100.00;102705.75;5002285;28;20033;-78
2023/12/16 06:38:20;;;;;;;0.60;0.60;;;;;;;6.90;100.00;102706.06;5002298;28;20037;-79
2023/12/16 06:40:46;;;;;;;2.40;0.63;;;;;;;6.97;100.00;102696.69;4986501;28;20128;-79
2023/12/16 06:43:12;;;;;;;0.70;0.60;;;;;;;6.91;100.00;102700.63;5002717;28;20119;-79
2023/12/16 06:45:54;;;;;;;0.73;0.60;;;;;;;6.86;100.00;102691.22;4986067;28;20128;-79
2023/12/16 06:48:21;;;;;;;0.50;0.50;;;;;;;6.77;100.00;102690.88;5018698;28;20092;-79
2023/12/16 06:50:57;;;;;;;0.60;0.60;;;;;;;6.80;100.00;102689.78;5034641;28;20025;-79
2023/12/16 06:53:23;;;;;;;0.68;0.60;;;;;;;6.91;100.00;102684.59;5019168;28;20029;-79
2023/12/16 06:55:48;;;;;;;1.85;0.70;;;;;;;7.05;100.00;102676.47;5001660;28;20381;-79
2023/12/16 06:58:14;;;;;;;1.13;0.85;;;;;;;6.99;100.00;102681.41;5002651;28;20504;-79
2023/12/16 07:00:43;;;;;;;0.57;0.57;;;;;;;6.99;100.00;102676.03;5001856;28;20419;-79
2023/12/16 07:03:08;;;;;;;0.60;0.60;;;;;;;6.96;100.00;102673.56;5002107;28;20200;-79
2023/12/16 07:05:34;;;;;;;0.60;0.60;;;;;;;7.00;100.00;102675.91;5018310;28;20527;-79
2023/12/16 07:08:03;;;;;;;0.60;0.60;;;;;;;7.03;100.00;102678.38;5017543;28;20369;-79
2023/12/16 07:10:32;;;;;;;0.55;0.55;;;;;;;7.11;100.00;102679.69;5018992;28;20030;-80
2023/12/16 07:12:59;;;;;;;0.70;0.68;;;;;;;7.13;100.00;102688.47;5001647;28;20053;-80
2023/12/16 07:15:27;;;;;;;1.33;0.60;;;;;;;7.11;100.00;102685.03;5033975;28;20029;-79
2023/12/16 07:17:52;;;;;;;0.50;0.50;;;;;;;7.16;100.00;102678.41;5001220;28;20029;-79
2023/12/16 07:20:20;;;;;;;0.60;0.50;;;;;;;7.11;100.00;102677.84;5000951;28;20040;-79
2023/12/16 07:22:52;;;;;;;0.70;0.60;;;;;;;7.09;100.00;102681.59;5017462;28;20072;-79
2023/12/16 07:25:21;;;;;;;0.63;0.60;;;;;;;7.02;100.00;102673.16;5002277;28;20041;-79
2023/12/16 07:27:49;;;;;;;0.50;0.50;;;;;;;6.97;100.00;102676.13;5001711;28;20037;-79
2023/12/16 07:30:19;;;;;;;1.15;0.60;;;;;;;6.99;100.00;102676.91;5001175;28;20040;-80
2023/12/16 07:32:48;;;;;;;0.60;0.60;;;;;;;7.04;100.00;102680.13;5001287;28;20488;-79
2023/12/16 07:35:15;;;;;;;0.63;0.63;;;;;;;6.97;100.00;102667.25;5016983;28;20033;-79
2023/12/16 07:37:43;;;;;;;0.80;0.77;;;;;;;6.86;100.00;102664.47;5017100;28;20028;-79
2023/12/16 07:40:12;;;;;;;0.80;0.50;;;;;;;6.88;100.00;102652.72;5000203;28;20029;-79
2023/12/16 07:42:39;;;;;;;0.70;0.55;;;;;;;6.88;100.00;102657.19;5000733;28;20039;-79
2023/12/16 07:45:05;;;;;;;0.52;0.52;;;;;;;6.84;100.00;102653.88;5016678;28;20065;-79
2023/12/16 07:47:32;;;;;;;0.52;0.52;;;;;;;6.73;100.00;102651.09;5000255;28;20042;-79
2023/12/16 07:49:58;;;;;;;1.20;0.90;;;;;;;6.72;100.00;102646.69;5000932;28;20071;-79
2023/12/16 07:52:24;;;;;;;1.90;1.00;;;;;;;6.87;100.00;102644.78;5016561;28;20061;-79
2023/12/16 07:54:50;;;;;;;0.88;0.63;;;;;;;6.87;100.00;102652.81;5001017;28;20068;-79
2023/12/16 07:57:17;;;;;;;0.60;0.60;;;;;;;6.99;100.00;102647.47;5017545;28;20033;-80
2023/12/16 07:59:46;;;;;;;2.00;0.95;;;;;;;7.04;100.00;102652.50;5017526;28;20036;-79
2023/12/16 08:02:12;;;;;;;4.10;3.03;;;;;;;7.05;100.00;102648.88;5016558;28;20032;-79
2023/12/16 08:04:40;;;;;;;1.55;1.10;;;;;;;6.98;100.00;102650.25;5017278;28;20379;-79
2023/12/16 08:07:06;;;;;;;0.75;0.60;;;;;;;7.01;100.00;102648.22;5000494;28;20063;-79
2023/12/16 08:09:32;;;;;;;1.15;0.80;;;;;;;7.05;100.00;102655.06;4984749;28;20072;-79
2023/12/16 08:12:00;;;;;;;1.75;0.60;;;;;;;7.02;100.00;102662.47;5017226;28;20476;-80
2023/12/16 08:14:28;;;;;;;1.30;0.50;;;;;;;7.09;100.00;102661.03;5016917;28;20460;-79
2023/12/16 08:16:57;;;;;;;0.98;0.63;;;;;;;7.13;100.00;102667.91;5016500;28;20484;-79
2023/12/16 08:19:22;;;;;;;0.55;0.50;;;;;;;7.09;100.00;102655.69;4995419;28;20037;-79
2023/12/16 08:21:48;;;;;;;0.77;0.63;;;;;;;7.23;100.00;102657.44;4983865;28;20040;-79
2023/12/16 08:24:14;;;;;;;1.65;0.52;;;;;;;7.24;100.00;102665.34;5016818;28;20030;-80
2023/12/16 08:26:47;;;;;;;1.30;0.70;;;;;;;7.21;100.00;102659.34;5001255;28;20034;-79
2023/12/16 08:29:15;;;;;;;1.60;1.10;;;;;;;7.22;100.00;102666.41;5015597;28;20029;-79
2023/12/16 08:31:41;;;;;;;2.58;1.60;;;;;;;7.27;100.00;102674.97;5016966;28;20056;-79
2023/12/16 08:34:07;;;;;;;0.90;0.73;;;;;;;7.29;100.00;102667.69;5015686;28;20418;-80
2023/12/16 08:36:32;;;;;;;11.13;1.58;;;;;;;7.27;100.00;102664.25;5016021;28;20091;-79
2023/12/16 08:38:58;;;;;;;1.65;0.80;;;;;;;7.31;100.00;102665.78;5016641;28;20157;-79
2023/12/16 08:41:25;;;;;;;2.42;1.20;;;;;;;7.44;100.00;102673.81;5000069;28;20057;-79
2023/12/16 08:43:50;;;;;;;1.40;0.90;;;;;;;7.46;100.00;102683.44;5000070;28;20034;-79
2023/12/16 08:46:22;;;;;;;3.35;2.25;;;;;;;7.48;100.00;102680.63;4999883;28;20037;-79
2023/12/16 08:48:47;;;;;;;3.88;2.63;;;;;;;7.46;100.00;102679.88;5000077;28;20033;-79
2023/12/16 08:51:20;;;;;;;3.10;0.90;;;;;;;7.39;100.00;102679.47;5015852;28;20083;-79
2023/12/16 08:53:45;;;;;;;0.63;0.57;;;;;;;7.32;100.00;102667.47;5015855;28;20369;-78
2023/12/16 08:56:11;;;;;;;1.63;1.02;;;;;;;7.37;100.00;102659.13;4999543;28;20091;-79
2023/12/16 08:58:37;;;;;;;0.63;0.60;;;;;;;7.42;100.00;102665.03;4999317;28;20044;-79
2023/12/16 09:01:03;;;;;;;0.70;0.68;;;;;;;7.48;100.00;102665.44;4999675;28;20037;-77
2023/12/16 09:03:31;;;;;;;0.85;0.55;;;;;;;7.47;100.00;102666.41;5016161;28;20044;-79
2023/12/16 09:05:57;;;;;;;0.60;0.60;;;;;;;7.42;100.00;102668.53;5031905;28;20475;-79
2023/12/16 09:08:23;;;;;;;1.20;1.10;;;;;;;7.48;100.00;102667.25;4999787;28;20033;-79
2023/12/16 09:10:49;;;;;;;1.85;1.40;;;;;;;7.57;100.00;102679.13;5016116;28;20046;-78
2023/12/16 09:13:15;;;;;;;2.30;2.00;;;;;;;7.55;100.00;102678.41;5015067;28;20102;-78
2023/12/16 09:15:41;;;;;;;1.98;1.23;;;;;;;7.56;100.00;102691.66;5000269;28;20420;-78
2023/12/16 09:18:06;;;;;;;3.08;2.30;;;;;;;7.53;100.00;102693.69;5002423;28;20395;-78
2023/12/16 09:20:34;;;;;;;2.95;1.83;;;;;;;7.58;100.00;102694.25;5016329;28;20029;-79
2023/12/16 09:22:59;;;;;;;1.55;1.13;;;;;;;7.59;100.00;102694.09;4999985;28;20068;-79
2023/12/16 09:25:25;;;;;;;1.70;0.90;;;;;;;7.70;100.00;102680.84;4999572;28;20099;-79
2023/12/16 09:27:51;;;;;;;1.88;1.05;;;;;;;7.67;100.00;102688.22;5015957;28;20033;-79
2023/12/16 09:30:19;;;;;;;3.03;1.60;;;;;;;7.75;100.00;102691.19;4998933;28;20498;-79
2023/12/16 09:32:47;;;;;;;3.60;2.00;;;;;;;7.83;100.00;102699.56;5015730;28;20025;-80
2023/12/16 09:35:13;;;;;;;0.93;0.63;;;;;;;7.88;100.00;102693.84;5015754;28;20025;-79
2023/12/16 09:37:42;;;;;;;2.15;1.10;;;;;;;8.02;100.00;102695.53;4999201;28;20491;-79
2023/12/16 09:40:08;;;;;;;5.15;2.63;;;;;;;8.12;100.00;102699.25;4983300;28;20384;-80
2023/12/16 09:42:37;;;;;;;2.78;1.70;;;;;;;8.17;100.00;102698.91;5018529;28;20123;-79
2023/12/16 09:45:04;;;;;;;1.20;0.90;;;;;;;8.24;100.00;102697.50;5003325;28;20364;-79
2023/12/16 09:47:30;;;;;;;1.00;0.80;;;;;;;8.32;100.00;102687.91;5019514;28;20041;-79
2023/12/16 09:50:00;;;;;;;0.50;0.50;;;;;;;8.48;100.00;102694.88;5035966;28;20029;-79
2023/12/16 09:52:27;;;;;;;1.00;0.77;;;;;;;8.62;100.00;102710.75;5019343;28;20044;-79
2023/12/16 09:54:56;;;;;;;0.80;0.70;;;;;;;8.66;100.00;102714.94;5002624;28;20498;-79
2023/12/16 09:57:23;;;;;;;0.63;0.63;;;;;;;8.90;100.00;102703.31;5018314;28;20527;-79
2023/12/16 09:59:51;;;;;;;0.70;0.60;;;;;;;9.06;100.00;102711.91;5002792;28;20126;-79
2023/12/16 10:02:27;;;;;;;0.80;0.63;;;;;;;9.43;100.00;102731.38;5035174;28;20029;-80
2023/12/16 10:04:58;;;;;;;1.48;0.65;;;;;;;9.72;100.00;102720.16;5019437;28;20036;-79
2023/12/16 10:07:25;;;;;;;0.98;0.80;;;;;;;10.08;100.00;102736.97;5019365;28;20490;-79
2023/12/16 10:09:51;;;;;;;1.33;0.80;;;;;;;10.37;100.00;102737.31;5019316;28;20034;-79
2023/12/16 10:12:18;;;;;;;0.70;0.70;;;;;;;10.50;100.00;102724.56;4986778;28;20045;-79
2023/12/16 10:14:49;;;;;;;0.60;0.60;;;;;;;10.51;100.00;102722.75;5018859;28;20033;-79
2023/12/16 10:17:19;;;;;;;0.40;0.40;;;;;;;10.59;100.00;102719.44;5019483;28;20044;-80
2023/12/16 10:19:45;;;;;;;0.85;0.68;;;;;;;10.65;100.00;102718.91;5002550;28;20077;-80
2023/12/16 10:22:19;;;;;;;1.83;1.25;;;;;;;10.46;100.00;102719.59;5002230;28;20383;-80
2023/12/16 10:24:45;;;;;;;1.75;0.90;;;;;;;10.31;100.00;102717.16;4986513;28;20037;-80
2023/12/16 10:27:13;;;;;;;1.90;0.90;;;;;;;10.26;100.00;102731.94;5002905;28;20049;-79
2023/12/16 10:29:42;;;;;;;1.95;1.20;;;;;;;10.16;100.00;102736.34;5019415;28;20113;-79
2023/12/16 10:32:11;;;;;;;0.85;0.70;;;;;;;10.04;100.00;102741.75;5003145;28;20075;-79
2023/12/16 10:34:38;;;;;;;2.28;1.40;;;;;;;10.00;100.00;102756.44;5018457;28;20029;-79
2023/12/16 10:37:07;;;;;;;2.03;1.30;;;;;;;9.99;100.00;102751.19;5035094;28;20034;-79
2023/12/16 10:39:34;;;;;;;2.28;1.48;;;;;;;9.99;100.00;102743.97;5018933;28;20100;-79
2023/12/16 10:41:59;;;;;;;1.75;1.10;;;;;;;10.04;100.00;102736.38;5002455;28;20120;-79
2023/12/16 10:44:25;;;;;;;4.30;1.98;;;;;;;10.12;100.00;102739.31;5018318;28;20128;-79
2023/12/16 10:46:52;;;;;;;5.30;1.95;;;;;;;10.20;100.00;102736.00;5002577;28;20042;-80
2023/12/16 10:49:31;;;;;;;3.35;1.40;;;;;;;10.23;100.00;102734.88;5034599;28;20030;-79
2023/12/16 10:52:06;;;;;;;2.85;1.50;;;;;;;10.33;100.00;102731.34;4987163;28;20037;-79
2023/12/16 10:54:42;;;;;;;2.45;1.00;;;;;;;10.44;100.00;102719.72;5018074;28;20040;-79
2023/12/16 10:57:28;;;;;;;2.35;1.00;;;;;;;10.54;100.00;102717.97;5002019;28;20053;-80
2023/12/16 11:00:06;;;;;;;0.98;0.60;;;;;;;10.57;100.00;102701.56;5002351;28;20032;-79
2023/12/16 11:02:40;;;;;;;0.52;0.52;;;;;;;10.63;100.00;102702.03;5001985;28;20387;-80
2023/12/16 11:05:09;;;;;;;1.35;0.90;;;;;;;10.72;100.00;102699.44;5034352;28;20033;-80
2023/12/16 11:07:41;;;;;;;1.92;0.98;;;;;;;10.91;100.00;102693.34;5018475;28;20380;-80
2023/12/16 11:10:07;;;;;;;0.70;0.60;;;;;;;11.02;100.00;102695.13;5035086;28;20048;-80
2023/12/16 11:12:37;;;;;;;0.63;0.60;;;;;;;11.04;100.00;102695.84;5034342;28;20387;-79
2023/12/16 11:15:06;;;;;;;2.45;0.60;;;;;;;10.97;100.00;102697.34;5001500;28;20030;-79
2023/12/16 11:17:42;;;;;;;0.55;0.55;;;;;;;10.81;100.00;102686.19;5018194;28;20115;-79
2023/12/16 11:20:13;;;;;;;0.60;0.60;;;;;;;10.76;100.00;102689.25;5034250;28;20022;-80
2023/12/16 11:22:49;;;;;;;0.82;0.75;;;;;;;10.71;100.00;102683.41;5017958;28;20472;-79
2023/12/16 11:25:17;;;;;;;0.70;0.70;;;;;;;10.72;100.00;102671.69;5032286;28;20472;-79
2023/12/16 11:27:43;;;;;;;0.80;0.60;;;;;;;10.73;100.00;102666.16;5015260;28;20045;-79
2023/12/16 11:30:14;;;;;;;1.75;0.80;;;;;;;10.73;100.00;102660.78;5016616;28;20124;-79
2023/12/16 11:32:42;;;;;;;0.73;0.60;;;;;;;10.77;100.00;102664.09;4985836;28;20616;-79
2023/12/16 11:35:08;;;;;;;0.60;0.60;;;;;;;10.79;100.00;102664.78;4999472;28;20052;-79
2023/12/16 11:37:36;;;;;;;0.57;0.50;;;;;;;10.73;100.00;102651.84;5015696;28;20026;-79
2023/12/16 11:40:07;;;;;;;0.90;0.77;;;;;;;10.83;100.00;102668.09;5016246;28;20045;-79